Time;durP1;ratioP1;P1;durP2;ratioP2;P2;SDS_P1;SDS_P2;PMS_P1;PMS_P2;Temp;Humidity;BMP_temperature;BMP_pressure;BME280_temperature;BME280_humidity;BME280_pressure;Samples;Min_cycle;Max_cycle;Signal;HPM_P1;HPM_P2
2021/06/13 00:00:45;;;;;;;12.95;5.47;;;22.70;95.60;;;;;;5033503;28;20044;-85
2021/06/13 00:03:11;;;;;;;5.70;5.10;;;22.70;96.00;;;;;;5015445;28;20033;-88
2021/06/13 00:05:37;;;;;;;10.15;5.25;;;22.70;95.60;;;;;;5035958;28;20528;-83
2021/06/13 00:08:03;;;;;;;11.18;5.40;;;22.70;95.70;;;;;;5032797;28;20079;-81
2021/06/13 00:10:29;;;;;;;9.52;5.43;;;22.70;95.80;;;;;;5025620;28;20014;-86
2021/06/13 00:12:55;;;;;;;8.25;5.20;;;22.60;96.00;;;;;;5033130;28;20558;-85
2021/06/13 00:15:24;;;;;;;8.60;5.57;;;22.50;96.40;;;;;;5033337;28;20021;-87
2021/06/13 00:17:51;;;;;;;11.65;5.70;;;22.50;96.90;;;;;;5033458;28;20033;-86
2021/06/13 00:20:23;;;;;;;8.50;5.78;;;22.50;97.30;;;;;;5033029;28;20415;-88
2021/06/13 00:22:50;;;;;;;7.00;5.82;;;22.50;97.40;;;;;;5033381;28;20018;-87
2021/06/13 00:25:16;;;;;;;7.82;6.15;;;22.60;97.50;;;;;;5033060;28;20060;-86
2021/06/13 00:27:42;;;;;;;10.25;6.32;;;22.60;97.40;;;;;;5033699;28;20040;-85
2021/06/13 00:30:11;;;;;;;7.47;6.32;;;22.60;97.40;;;;;;5033065;28;20021;-87
2021/06/13 00:32:37;;;;;;;10.82;5.78;;;22.60;97.40;;;;;;5032892;28;20037;-79
2021/06/13 00:35:05;;;;;;;7.47;6.03;;;22.70;97.50;;;;;;5033254;28;20049;-82
2021/06/13 00:37:31;;;;;;;8.02;5.88;;;22.60;97.40;;;;;;5033097;28;20025;-86
2021/06/13 00:39:57;;;;;;;8.07;6.45;;;22.60;97.50;;;;;;5033211;28;20100;-87
2021/06/13 00:42:23;;;;;;;13.48;6.20;;;22.60;97.50;;;;;;5032971;28;20060;-85
2021/06/13 00:44:49;;;;;;;11.35;6.82;;;22.70;97.50;;;;;;5032988;28;20427;-82
2021/06/13 00:47:14;;;;;;;7.53;6.35;;;22.60;97.50;;;;;;5032711;28;20036;-87
2021/06/13 00:49:40;;;;;;;12.43;5.82;;;22.60;97.60;;;;;;5033150;28;20053;-85
2021/06/13 00:52:07;;;;;;;9.13;5.63;;;22.50;97.80;;;;;;5032964;28;20374;-84
2021/06/13 00:54:33;;;;;;;8.45;6.68;;;22.50;97.90;;;;;;5015071;28;20099;-81
2021/06/13 00:56:59;;;;;;;12.48;5.97;;;22.50;97.90;;;;;;5033121;28;20378;-81
2021/06/13 00:59:25;;;;;;;10.30;5.65;;;22.50;97.90;;;;;;5015164;28;20088;-81
2021/06/13 01:01:50;;;;;;;11.38;6.05;;;22.40;97.90;;;;;;5032579;28;20022;-89
2021/06/13 01:04:16;;;;;;;9.30;6.75;;;22.40;97.90;;;;;;5032682;28;20124;-87
2021/06/13 01:07:03;;;;;;;7.85;6.60;;;22.40;98.00;;;;;;5022796;28;20030;-83
2021/06/13 01:09:33;;;;;;;12.57;6.68;;;22.40;98.10;;;;;;5013353;28;20025;-87
2021/06/13 01:12:10;;;;;;;11.75;6.93;;;22.40;98.20;;;;;;5016741;28;20026;-88
2021/06/13 01:14:54;;;;;;;8.20;6.70;;;22.40;98.20;;;;;;5016779;28;20022;-81
2021/06/13 01:17:33;;;;;;;7.40;6.68;;;22.40;98.30;;;;;;5003721;28;20435;-85
2021/06/13 01:20:12;;;;;;;11.13;6.63;;;22.40;98.30;;;;;;5017227;28;20104;-88
2021/06/13 01:23:02;;;;;;;14.45;7.03;;;22.40;98.30;;;;;;5016674;28;20038;-87
2021/06/13 01:25:43;;;;;;;10.98;6.53;;;22.40;98.10;;;;;;5016086;28;20382;-81
2021/06/13 01:28:46;;;;;;;7.40;6.30;;;22.40;98.10;;;;;;5017131;28;20122;-84
2021/06/13 01:31:12;;;;;;;8.55;7.22;;;22.40;98.20;;;;;;5005374;28;20021;-87
2021/06/13 01:33:39;;;;;;;7.85;7.05;;;22.40;98.20;;;;;;5016451;28;20034;-87
2021/06/13 01:36:08;;;;;;;10.10;6.90;;;22.30;98.30;;;;;;5016426;28;20423;-87
2021/06/13 01:38:35;;;;;;;8.32;6.70;;;22.30;98.40;;;;;;5016938;28;20028;-87
2021/06/13 01:41:04;;;;;;;11.77;7.00;;;22.30;98.40;;;;;;4996751;28;20045;-87
2021/06/13 01:43:31;;;;;;;10.20;6.95;;;22.30;98.40;;;;;;5016683;28;20033;-87
2021/06/13 01:45:58;;;;;;;13.93;6.70;;;22.40;98.60;;;;;;5017066;28;20090;-88
2021/06/13 01:48:24;;;;;;;11.82;6.85;;;22.30;98.60;;;;;;5016683;28;20031;-88
2021/06/13 01:50:50;;;;;;;10.57;6.57;;;22.30;98.70;;;;;;5015840;28;20030;-83
2021/06/13 01:53:18;;;;;;;10.90;7.15;;;22.30;98.90;;;;;;5015930;28;20041;-87
2021/06/13 01:55:51;;;;;;;8.95;7.28;;;22.40;99.00;;;;;;5016081;28;20376;-82
2021/06/13 01:58:19;;;;;;;10.95;7.30;;;22.40;99.20;;;;;;5002835;28;20525;-87
2021/06/13 02:00:47;;;;;;;8.45;7.03;;;22.40;99.20;;;;;;5015833;28;20081;-83
2021/06/13 02:03:13;;;;;;;12.70;7.63;;;22.40;99.20;;;;;;5011226;28;20403;-87
2021/06/13 02:05:41;;;;;;;7.88;6.72;;;22.40;99.10;;;;;;5016519;28;20033;-86
2021/06/13 02:08:09;;;;;;;13.18;7.30;;;22.40;99.20;;;;;;5016416;28;20029;-86
2021/06/13 02:10:35;;;;;;;10.35;7.70;;;22.40;99.30;;;;;;5016728;28;20018;-79
2021/06/13 02:13:01;;;;;;;9.40;7.47;;;22.40;99.50;;;;;;5016612;28;20030;-82
2021/06/13 02:15:29;;;;;;;10.02;7.60;;;22.40;99.50;;;;;;5023477;28;20022;-82
2021/06/13 02:17:56;;;;;;;7.40;6.55;;;22.40;99.50;;;;;;5022480;28;20026;-83
2021/06/13 02:20:29;;;;;;;10.35;6.63;;;22.40;99.50;;;;;;5013883;28;20046;-85
2021/06/13 02:22:56;;;;;;;11.90;7.95;;;22.40;99.60;;;;;;4995589;28;20033;-78
2021/06/13 02:25:23;;;;;;;14.57;7.72;;;22.40;99.60;;;;;;5019754;28;20018;-83
2021/06/13 02:27:52;;;;;;;10.27;7.30;;;22.40;99.90;;;;;;5035815;28;20025;-83
2021/06/13 02:30:19;;;;;;;13.40;8.18;;;22.30;99.90;;;;;;5031960;28;20108;-87
2021/06/13 02:32:46;;;;;;;12.35;7.82;;;22.40;99.90;;;;;;5014548;28;20030;-85
2021/06/13 02:35:12;;;;;;;12.32;7.85;;;22.30;99.90;;;;;;5014181;28;20514;-85
2021/06/13 02:37:43;;;;;;;8.57;7.35;;;22.40;99.90;;;;;;5014316;28;20026;-86
2021/06/13 02:40:12;;;;;;;19.70;7.90;;;22.40;99.90;;;;;;5014379;28;20026;-86
2021/06/13 02:42:44;;;;;;;11.13;9.10;;;22.40;99.90;;;;;;4993602;28;20018;-87
2021/06/13 02:45:17;;;;;;;12.52;8.13;;;22.40;99.90;;;;;;5014236;28;20033;-87
2021/06/13 02:47:45;;;;;;;8.98;7.60;;;22.40;99.90;;;;;;5014886;28;20022;-87
2021/06/13 02:50:22;;;;;;;14.45;7.72;;;22.40;99.90;;;;;;5015166;28;20026;-87
2021/06/13 02:53:06;;;;;;;9.40;7.70;;;22.40;99.90;;;;;;5001704;28;20026;-88
2021/06/13 02:55:57;;;;;;;7.38;6.65;;;22.40;99.90;;;;;;4997181;28;20041;-86
2021/06/13 02:58:41;;;;;;;9.37;6.97;;;22.40;99.90;;;;;;5015118;28;20022;-87
2021/06/13 03:01:12;;;;;;;10.43;6.78;;;22.40;99.80;;;;;;5014400;28;20264;-87
2021/06/13 03:03:39;;;;;;;10.30;7.72;;;22.30;99.90;;;;;;4993686;28;20456;-79
2021/06/13 03:06:09;;;;;;;10.40;7.93;;;22.30;99.90;;;;;;5011583;28;20014;-82
2021/06/13 03:08:36;;;;;;;10.73;7.68;;;22.30;99.90;;;;;;4993377;28;20053;-84
2021/06/13 03:11:04;;;;;;;13.93;7.63;;;22.30;99.90;;;;;;5010782;28;20025;-86
2021/06/13 03:13:32;;;;;;;10.05;7.25;;;22.30;99.90;;;;;;5013699;28;20390;-85
2021/06/13 03:15:59;;;;;;;9.65;7.40;;;22.30;99.90;;;;;;5013474;28;20026;-83
2021/06/13 03:18:27;;;;;;;10.32;7.90;;;22.30;99.90;;;;;;5013475;28;20429;-84
2021/06/13 03:20:54;;;;;;;10.25;7.32;;;22.30;99.90;;;;;;5013337;28;20166;-83
2021/06/13 03:23:21;;;;;;;12.60;8.55;;;22.30;99.90;;;;;;5013414;28;20022;-85
2021/06/13 03:25:48;;;;;;;9.27;7.68;;;22.30;99.90;;;;;;5013228;28;20027;-82
2021/06/13 03:28:17;;;;;;;13.00;7.75;;;22.40;99.90;;;;;;5013514;28;20386;-85
2021/06/13 03:30:43;;;;;;;10.63;7.70;;;22.40;99.90;;;;;;5012551;28;20027;-83
2021/06/13 03:33:09;;;;;;;12.48;7.05;;;22.40;99.90;;;;;;5013287;28;20393;-82
2021/06/13 03:35:35;;;;;;;9.48;6.97;;;22.30;99.90;;;;;;5013124;28;20030;-86
2021/06/13 03:38:02;;;;;;;8.88;5.88;;;22.30;99.90;;;;;;5013131;28;20026;-83
2021/06/13 03:40:30;;;;;;;6.65;5.97;;;22.30;99.70;;;;;;5013023;28;20018;-85
2021/06/13 03:42:56;;;;;;;7.63;6.40;;;22.40;99.80;;;;;;5012575;28;20434;-85
2021/06/13 03:45:26;;;;;;;8.95;6.28;;;22.40;99.60;;;;;;5012871;28;20077;-80
2021/06/13 03:47:53;;;;;;;6.68;5.97;;;22.40;99.60;;;;;;5012855;28;20034;-83
2021/06/13 03:50:20;;;;;;;8.93;6.30;;;22.40;99.60;;;;;;5012549;28;20018;-82
2021/06/13 03:52:46;;;;;;;10.10;6.07;;;22.40;99.50;;;;;;5012441;28;20124;-85
2021/06/13 03:55:12;;;;;;;7.22;6.25;;;22.40;99.40;;;;;;5012850;28;20053;-80
2021/06/13 03:57:44;;;;;;;6.47;5.78;;;22.40;99.40;;;;;;5013023;28;20104;-83
2021/06/13 04:00:12;;;;;;;9.77;6.00;;;22.50;99.50;;;;;;5012724;28;20022;-85
2021/06/13 04:02:44;;;;;;;8.68;6.00;;;22.50;99.00;;;;;;5012754;28;20375;-85
2021/06/13 04:05:12;;;;;;;10.30;6.03;;;22.50;99.00;;;;;;5012519;28;20501;-81
2021/06/13 04:07:40;;;;;;;6.45;5.53;;;22.50;99.00;;;;;;5012576;28;20040;-83
2021/06/13 04:10:07;;;;;;;14.13;5.97;;;22.50;98.90;;;;;;5013215;28;20029;-84
2021/06/13 04:12:33;;;;;;;16.23;5.35;;;22.70;98.80;;;;;;4991861;28;20034;-84
2021/06/13 04:15:00;;;;;;;9.57;5.80;;;22.80;98.70;;;;;;5009794;28;20106;-83
2021/06/13 04:17:27;;;;;;;6.40;5.60;;;23.00;98.50;;;;;;5012572;28;20378;-80
2021/06/13 04:19:54;;;;;;;5.60;4.80;;;23.10;98.20;;;;;;5012277;28;20113;-81
2021/06/13 04:22:21;;;;;;;9.93;5.55;;;23.30;98.00;;;;;;5012598;28;20040;-81
2021/06/13 04:24:49;;;;;;;5.85;5.25;;;23.50;97.80;;;;;;5012640;28;20021;-86
2021/06/13 04:27:19;;;;;;;11.65;5.15;;;23.70;97.60;;;;;;4999371;28;20029;-85
2021/06/13 04:29:46;;;;;;;8.70;6.00;;;23.80;97.40;;;;;;5012380;28;20430;-84
2021/06/13 04:32:12;;;;;;;7.43;4.80;;;24.10;97.20;;;;;;5012086;28;20062;-85
2021/06/13 04:34:38;;;;;;;6.25;4.88;;;24.40;96.90;;;;;;5012051;28;20530;-80
2021/06/13 04:37:05;;;;;;;6.88;4.85;;;24.80;96.30;;;;;;5012164;28;20026;-82
2021/06/13 04:39:31;;;;;;;4.60;4.10;;;25.20;95.80;;;;;;5012500;28;20057;-82
2021/06/13 04:41:57;;;;;;;6.65;4.72;;;25.70;95.40;;;;;;5009572;28;20030;-81
2021/06/13 04:44:23;;;;;;;5.00;4.38;;;26.00;95.00;;;;;;5016255;28;20406;-84
2021/06/13 04:46:49;;;;;;;6.20;4.25;;;26.30;94.70;;;;;;4994846;28;20352;-82
2021/06/13 04:49:14;;;;;;;5.10;4.18;;;26.50;94.30;;;;;;5015371;28;20056;-85
2021/06/13 04:51:44;;;;;;;7.00;4.60;;;26.80;94.00;;;;;;5015696;28;20022;-82
2021/06/13 04:54:14;;;;;;;4.90;3.90;;;26.90;93.70;;;;;;5015267;28;20026;-86
2021/06/13 04:56:42;;;;;;;10.45;4.32;;;27.20;93.40;;;;;;5016013;28;20033;-84
2021/06/13 04:59:08;;;;;;;6.13;4.55;;;27.40;93.20;;;;;;5015136;28;20026;-84
2021/06/13 05:01:35;;;;;;;6.05;4.25;;;27.50;93.00;;;;;;5015905;28;20128;-85
2021/06/13 05:04:02;;;;;;;6.07;3.97;;;27.50;93.00;;;;;;5015488;28;20022;-81
2021/06/13 05:06:28;;;;;;;5.10;4.40;;;27.50;92.90;;;;;;5015648;28;20037;-84
2021/06/13 05:08:54;;;;;;;5.22;3.95;;;27.60;93.10;;;;;;5015424;28;20022;-85
2021/06/13 05:11:20;;;;;;;19.95;4.78;;;27.80;92.80;;;;;;5015611;28;20036;-84
2021/06/13 05:13:46;;;;;;;5.85;4.20;;;28.20;92.60;;;;;;5015662;28;20030;-82
2021/06/13 05:16:12;;;;;;;12.98;4.20;;;28.20;92.50;;;;;;5028828;28;20034;-83
2021/06/13 05:18:38;;;;;;;6.60;4.28;;;28.40;92.40;;;;;;5016164;28;20079;-85
2021/06/13 05:21:04;;;;;;;5.03;3.97;;;28.80;92.10;;;;;;5015363;28;20101;-84
2021/06/13 05:23:30;;;;;;;6.82;4.57;;;29.00;91.70;;;;;;5009248;28;20025;-82
2021/06/13 05:25:57;;;;;;;5.88;3.92;;;29.00;91.70;;;;;;5013482;28;20030;-84
2021/06/13 05:28:24;;;;;;;8.15;4.20;;;29.30;91.60;;;;;;5010226;28;20085;-85
2021/06/13 05:30:51;;;;;;;10.02;4.20;;;29.50;91.50;;;;;;5011240;28;20022;-85
2021/06/13 05:33:17;;;;;;;5.25;4.13;;;29.80;91.00;;;;;;4994303;28;20466;-86
2021/06/13 05:35:43;;;;;;;8.23;4.15;;;30.10;91.00;;;;;;4992033;28;20045;-80
2021/06/13 05:38:10;;;;;;;5.75;5.03;;;30.60;90.60;;;;;;5011841;28;20037;-81
2021/06/13 05:40:38;;;;;;;7.22;4.32;;;31.10;90.10;;;;;;5015236;28;20018;-84
2021/06/13 05:43:06;;;;;;;4.60;3.75;;;31.60;89.90;;;;;;5013193;28;20105;-87
2021/06/13 05:45:32;;;;;;;8.68;4.07;;;31.90;89.10;;;;;;5010891;28;20793;-86
2021/06/13 05:47:58;;;;;;;4.88;3.90;;;32.00;88.70;;;;;;5012627;28;20034;-85
2021/06/13 05:50:25;;;;;;;17.67;4.47;;;32.00;88.50;;;;;;5011458;28;20117;-85
2021/06/13 05:52:51;;;;;;;4.63;4.13;;;31.70;88.50;;;;;;5014116;28;20018;-84
2021/06/13 05:55:18;;;;;;;4.95;4.30;;;31.10;89.60;;;;;;4996237;28;20030;-85
2021/06/13 05:57:45;;;;;;;8.25;3.40;;;31.20;90.00;;;;;;4994362;28;20106;-84
2021/06/13 06:00:22;;;;;;;6.13;3.90;;;32.00;90.40;;;;;;4996695;28;20053;-84
2021/06/13 06:02:48;;;;;;;4.53;4.00;;;33.00;88.10;;;;;;5011119;28;20037;-85
2021/06/13 06:05:19;;;;;;;4.57;3.60;;;33.10;86.80;;;;;;5013844;28;20478;-86
2021/06/13 06:07:44;;;;;;;7.20;3.63;;;32.90;86.80;;;;;;5013318;28;20010;-85
2021/06/13 06:10:12;;;;;;;8.50;3.55;;;33.10;87.40;;;;;;5014674;28;20402;-86
2021/06/13 06:12:39;;;;;;;9.70;3.65;;;33.60;86.20;;;;;;5011342;28;20474;-83
2021/06/13 06:15:07;;;;;;;5.72;3.95;;;34.30;85.90;;;;;;4997614;28;20102;-85
2021/06/13 06:17:34;;;;;;;4.30;3.80;;;34.20;84.40;;;;;;5014919;28;20109;-82
2021/06/13 06:20:01;;;;;;;5.70;3.38;;;34.50;83.30;;;;;;5015020;28;20064;-86
2021/06/13 06:22:26;;;;;;;3.67;3.38;;;34.50;82.50;;;;;;5014903;28;20091;-85
2021/06/13 06:24:52;;;;;;;4.97;3.50;;;33.90;83.40;;;;;;5014632;28;20018;-86
2021/06/13 06:27:19;;;;;;;5.03;3.47;;;34.20;83.30;;;;;;5015097;28;20029;-86
2021/06/13 06:29:45;;;;;;;5.63;3.92;;;34.50;82.50;;;;;;5014955;28;20018;-86
2021/06/13 06:32:11;;;;;;;10.27;3.60;;;34.90;82.30;;;;;;5014121;28;20033;-81
2021/06/13 06:34:36;;;;;;;6.20;3.60;;;35.50;81.70;;;;;;5014397;28;20056;-83
2021/06/13 06:37:03;;;;;;;5.25;4.05;;;36.00;80.90;;;;;;5014823;28;20078;-87
2021/06/13 06:39:29;;;;;;;7.05;4.65;;;36.40;80.20;;;;;;4994542;28;20026;-87
2021/06/13 06:41:55;;;;;;;6.78;3.50;;;36.60;80.20;;;;;;4993361;28;20028;-82
2021/06/13 06:44:20;;;;;;;10.25;4.53;;;36.40;80.20;;;;;;4993160;28;20088;-82
2021/06/13 06:46:46;;;;;;;7.47;4.55;;;35.80;81.30;;;;;;5009540;28;20018;-82
2021/06/13 06:49:12;;;;;;;5.22;3.80;;;35.30;81.70;;;;;;5013763;28;20113;-82
2021/06/13 06:51:38;;;;;;;5.43;3.72;;;34.80;83.40;;;;;;5014160;28;20030;-81
2021/06/13 06:54:04;;;;;;;5.35;3.85;;;34.60;84.70;;;;;;5013583;28;20026;-82
2021/06/13 06:56:30;;;;;;;6.22;3.55;;;34.30;84.80;;;;;;5012998;28;20092;-80
2021/06/13 06:58:56;;;;;;;16.85;4.85;;;33.70;83.10;;;;;;5013600;28;20375;-82
2021/06/13 07:01:22;;;;;;;4.95;3.90;;;32.70;85.30;;;;;;5003629;28;20024;-82
2021/06/13 07:03:48;;;;;;;4.25;3.80;;;32.10;86.50;;;;;;5008686;28;20354;-81
2021/06/13 07:06:14;;;;;;;6.72;3.60;;;31.90;87.00;;;;;;5008905;28;20079;-82
2021/06/13 07:08:40;;;;;;;4.28;3.42;;;31.50;87.40;;;;;;5007332;28;20084;-83
2021/06/13 07:11:06;;;;;;;5.28;4.40;;;31.30;87.80;;;;;;5012779;28;20085;-83
2021/06/13 07:13:32;;;;;;;9.05;3.67;;;31.00;88.70;;;;;;5006795;28;20034;-82
2021/06/13 07:15:58;;;;;;;6.22;4.38;;;31.20;88.60;;;;;;4997394;28;20109;-82
2021/06/13 07:18:26;;;;;;;4.32;3.85;;;31.20;88.70;;;;;;5012892;28;20105;-82
2021/06/13 07:20:55;;;;;;;11.00;5.28;;;31.00;89.50;;;;;;4992319;28;20030;-82
2021/06/13 07:23:21;;;;;;;20.48;4.70;;;30.60;90.00;;;;;;5015084;28;20021;-82
2021/06/13 07:25:47;;;;;;;14.00;5.05;;;30.40;90.60;;;;;;5024884;28;20018;-82
2021/06/13 07:28:14;;;;;;;17.58;4.40;;;30.90;90.50;;;;;;4994216;28;20471;-82
2021/06/13 07:30:40;;;;;;;7.78;4.50;;;30.90;90.40;;;;;;5011751;28;20489;-82
2021/06/13 07:33:07;;;;;;;8.18;5.30;;;30.90;90.40;;;;;;5010580;28;20080;-82
2021/06/13 07:35:33;;;;;;;9.18;5.25;;;30.70;90.70;;;;;;5007488;28;20129;-80
2021/06/13 07:38:00;;;;;;;14.02;5.28;;;30.90;90.40;;;;;;5009570;28;20112;-81
2021/06/13 07:40:31;;;;;;;9.23;5.88;;;30.60;90.20;;;;;;5011632;28;20038;-81
2021/06/13 07:42:57;;;;;;;12.23;5.38;;;30.50;90.60;;;;;;4997234;28;20530;-81
2021/06/13 07:45:24;;;;;;;8.13;4.43;;;30.60;90.30;;;;;;5010808;28;20399;-80
2021/06/13 07:47:50;;;;;;;9.68;5.20;;;30.90;90.60;;;;;;5008808;28;20069;-81
2021/06/13 07:50:18;;;;;;;19.17;5.25;;;31.10;89.50;;;;;;5004335;28;20109;-80
2021/06/13 07:52:46;;;;;;;7.63;5.32;;;31.40;90.00;;;;;;5009644;28;20064;-83
2021/06/13 07:55:14;;;;;;;9.55;4.70;;;31.30;89.30;;;;;;4995102;28;20019;-83
2021/06/13 07:57:42;;;;;;;5.55;4.75;;;31.30;90.00;;;;;;4996622;28;20463;-83
2021/06/13 08:00:10;;;;;;;7.22;4.88;;;31.20;90.00;;;;;;4993785;28;20018;-83
2021/06/13 08:02:37;;;;;;;8.75;5.00;;;31.20;89.40;;;;;;5008170;28;20017;-83
2021/06/13 08:05:08;;;;;;;7.80;4.90;;;31.30;89.50;;;;;;5009976;28;20022;-81
2021/06/13 08:07:34;;;;;;;;;;;31.10;89.70;;;;;;5005251;28;20022;-83
2021/06/13 08:10:00;;;;;;;8.30;5.78;;;30.90;89.90;;;;;;5009540;28;19905;-82
2021/06/13 08:12:26;;;;;;;7.63;4.78;;;30.90;90.40;;;;;;5004083;28;20038;-82
2021/06/13 08:14:54;;;;;;;8.77;5.35;;;31.10;90.60;;;;;;5011756;28;20026;-85
2021/06/13 08:17:19;;;;;;;7.28;4.65;;;31.00;90.00;;;;;;5012282;28;20021;-83
2021/06/13 08:19:45;;;;;;;7.50;5.38;;;31.00;90.20;;;;;;5012147;28;20025;-84
2021/06/13 08:22:11;;;;;;;6.93;5.65;;;30.80;90.40;;;;;;5012561;28;20026;-83
2021/06/13 08:24:38;;;;;;;6.93;4.75;;;30.90;90.50;;;;;;5012261;28;20513;-85
2021/06/13 08:27:05;;;;;;;14.50;5.15;;;31.10;90.60;;;;;;5012320;28;20565;-84
2021/06/13 08:29:31;;;;;;;5.50;4.60;;;31.10;89.90;;;;;;5012286;28;20549;-83
2021/06/13 08:31:57;;;;;;;7.25;4.57;;;31.30;89.70;;;;;;5003563;28;20104;-84
2021/06/13 08:34:23;;;;;;;7.97;4.97;;;31.40;89.90;;;;;;5003163;28;20025;-84
2021/06/13 08:36:49;;;;;;;7.65;4.50;;;31.40;89.90;;;;;;5011596;28;20018;-84
2021/06/13 08:39:15;;;;;;;7.93;4.47;;;31.40;90.10;;;;;;5003951;28;20026;-83
2021/06/13 08:41:41;;;;;;;8.60;4.80;;;31.50;90.30;;;;;;5010105;28;20018;-84
2021/06/13 08:44:07;;;;;;;5.55;5.05;;;31.70;90.50;;;;;;5003396;28;20029;-83
2021/06/13 08:46:36;;;;;;;4.85;4.30;;;31.50;90.20;;;;;;5006666;28;20014;-83
2021/06/13 08:49:02;;;;;;;6.43;4.30;;;30.90;90.40;;;;;;5010570;28;20415;-82
2021/06/13 08:51:28;;;;;;;14.82;4.72;;;30.40;91.10;;;;;;5004993;28;20014;-83
2021/06/13 08:53:54;;;;;;;6.78;4.55;;;30.40;91.10;;;;;;5011787;28;20466;-83
2021/06/13 08:56:21;;;;;;;5.07;4.43;;;30.40;90.90;;;;;;4993725;28;20048;-84
2021/06/13 08:58:47;;;;;;;13.60;4.82;;;30.40;91.00;;;;;;5011679;28;20049;-83
2021/06/13 09:01:14;;;;;;;6.85;5.20;;;30.40;91.20;;;;;;5003371;28;20057;-83
2021/06/13 09:03:41;;;;;;;5.78;4.40;;;30.40;90.80;;;;;;5009285;28;20021;-83
2021/06/13 09:06:08;;;;;;;9.52;4.28;;;30.30;91.10;;;;;;5011037;28;20018;-82
2021/06/13 09:08:41;;;;;;;4.97;4.20;;;30.50;91.50;;;;;;5011589;28;20018;-82
2021/06/13 09:11:08;;;;;;;5.05;4.32;;;30.80;91.50;;;;;;5010921;28;20104;-82
2021/06/13 09:13:37;;;;;;;10.00;4.72;;;31.00;91.30;;;;;;5006396;28;20038;-83
2021/06/13 09:16:06;;;;;;;6.25;4.60;;;31.10;91.40;;;;;;5012057;28;20360;-84
2021/06/13 09:18:41;;;;;;;10.00;5.20;;;31.10;90.50;;;;;;5012892;28;20088;-82
2021/06/13 09:21:30;;;;;;;10.38;4.57;;;31.00;91.00;;;;;;5004643;28;20072;-82
2021/06/13 09:23:58;;;;;;;9.40;4.45;;;31.10;90.90;;;;;;5005206;28;20459;-82
2021/06/13 09:26:29;;;;;;;9.68;4.18;;;31.10;90.10;;;;;;4997560;28;20427;-82
2021/06/13 09:28:57;;;;;;;5.80;3.63;;;31.30;90.10;;;;;;5006618;28;20049;-82
2021/06/13 09:31:28;;;;;;;6.60;4.40;;;31.10;90.30;;;;;;4998081;28;20093;-83
2021/06/13 09:33:57;;;;;;;6.10;5.07;;;31.20;90.50;;;;;;5008779;28;20029;-82
2021/06/13 09:36:35;;;;;;;12.48;4.10;;;31.40;90.60;;;;;;4987623;28;20046;-81
2021/06/13 09:39:07;;;;;;;4.90;4.43;;;31.50;90.20;;;;;;5013513;28;20030;-83
2021/06/13 09:41:39;;;;;;;14.93;5.03;;;31.20;90.40;;;;;;5013137;28;20024;-81
2021/06/13 09:44:16;;;;;;;6.30;4.35;;;31.10;91.10;;;;;;4994592;28;20018;-81
2021/06/13 09:46:44;;;;;;;9.82;4.50;;;31.00;91.10;;;;;;5007535;28;20046;-81
2021/06/13 09:49:13;;;;;;;7.80;4.20;;;31.00;90.80;;;;;;5013493;28;20025;-82
2021/06/13 09:51:42;;;;;;;10.43;4.53;;;31.30;90.60;;;;;;5011308;28;20057;-82
2021/06/13 09:54:10;;;;;;;6.53;4.20;;;31.20;90.60;;;;;;5013467;28;20037;-81
2021/06/13 09:56:37;;;;;;;13.07;4.50;;;30.90;90.70;;;;;;5012694;28;20445;-82
2021/06/13 09:59:03;;;;;;;6.85;4.78;;;30.80;90.50;;;;;;5012185;28;20072;-84
2021/06/13 10:01:32;;;;;;;13.07;4.57;;;30.90;90.60;;;;;;5011727;28;20030;-82
2021/06/13 10:03:59;;;;;;;9.95;4.03;;;30.70;90.50;;;;;;5007433;28;20022;-81
2021/06/13 10:06:33;;;;;;;4.38;3.90;;;30.70;90.70;;;;;;5010649;28;20038;-84
2021/06/13 10:08:59;;;;;;;5.50;4.65;;;30.60;90.60;;;;;;5006549;28;20033;-82
2021/06/13 10:11:26;;;;;;;8.27;4.22;;;30.70;90.50;;;;;;5009766;28;20084;-82
2021/06/13 10:13:56;;;;;;;5.55;4.10;;;30.60;90.30;;;;;;5012123;28;20124;-85
2021/06/13 10:16:41;;;;;;;4.32;3.90;;;30.60;90.10;;;;;;5013727;28;20379;-83
2021/06/13 10:19:14;;;;;;;7.13;3.95;;;30.50;90.20;;;;;;5013674;28;20026;-83
2021/06/13 10:21:43;;;;;;;9.57;3.53;;;30.50;90.10;;;;;;5012660;28;20061;-81
2021/06/13 10:24:21;;;;;;;3.53;3.22;;;30.40;89.40;;;;;;5011033;28;20125;-82
2021/06/13 10:26:49;;;;;;;5.07;3.88;;;30.40;89.20;;;;;;5014008;28;20022;-84
2021/06/13 10:29:16;;;;;;;4.68;3.42;;;30.50;89.40;;;;;;5013731;28;20034;-84
2021/06/13 10:31:46;;;;;;;4.57;3.78;;;30.40;88.00;;;;;;5006991;28;20033;-82
2021/06/13 10:34:12;;;;;;;19.58;3.58;;;30.40;88.80;;;;;;5010102;28;20030;-81
2021/06/13 10:36:42;;;;;;;3.83;3.42;;;30.40;88.30;;;;;;5012202;28;20038;-86
2021/06/13 10:39:11;;;;;;;5.00;3.78;;;30.40;89.10;;;;;;5012678;28;20105;-84
2021/06/13 10:41:37;;;;;;;3.40;3.10;;;30.30;90.00;;;;;;5010943;28;20361;-84
2021/06/13 10:44:10;;;;;;;5.45;4.00;;;30.30;88.10;;;;;;5009708;28;20072;-83
2021/06/13 10:46:39;;;;;;;3.80;3.35;;;30.10;89.40;;;;;;5012870;28;20572;-83
2021/06/13 10:49:09;;;;;;;3.95;3.55;;;30.20;89.30;;;;;;5010082;28;20486;-83
2021/06/13 10:51:37;;;;;;;4.93;3.65;;;30.20;89.00;;;;;;4988411;28;20027;-82
2021/06/13 10:54:29;;;;;;;4.30;3.20;;;30.20;88.40;;;;;;5010170;28;20360;-83
2021/06/13 10:57:15;;;;;;;6.55;3.55;;;30.20;88.60;;;;;;5014215;28;20014;-83
2021/06/13 10:59:45;;;;;;;4.15;3.40;;;30.20;89.40;;;;;;4976871;28;20042;-82
2021/06/13 11:02:17;;;;;;;3.30;3.00;;;30.20;90.00;;;;;;5020194;28;20415;-81
2021/06/13 11:04:43;;;;;;;3.90;3.53;;;30.10;87.70;;;;;;5012996;28;20026;-82
2021/06/13 11:07:09;;;;;;;6.72;2.95;;;30.10;87.40;;;;;;5010012;28;20415;-83
2021/06/13 11:10:08;;;;;;;6.38;3.40;;;30.20;87.90;;;;;;5004396;28;20509;-83
2021/06/13 11:12:49;;;;;;;4.35;3.58;;;30.30;88.90;;;;;;5010669;28;20084;-82
2021/06/13 11:15:22;;;;;;;5.80;3.60;;;30.50;90.10;;;;;;5001102;28;20030;-82
2021/06/13 11:17:58;;;;;;;4.35;2.90;;;30.60;90.00;;;;;;5011156;28;20030;-81
2021/06/13 11:22:56;;;;;;;;;;;30.50;89.00;;;;;;5025883;28;20466;-82
2021/06/13 11:25:26;;;;;;;3.40;3.10;;;30.40;87.90;;;;;;5030437;28;19955;-80
2021/06/13 11:28:08;;;;;;;4.13;3.38;;;30.40;89.00;;;;;;5005075;28;20026;-83
2021/06/13 11:30:34;;;;;;;3.00;2.70;;;30.30;87.50;;;;;;5020404;28;20077;-83
2021/06/13 11:33:00;;;;;;;3.88;2.92;;;30.20;88.80;;;;;;5027159;28;20508;-81
2021/06/13 11:35:30;;;;;;;5.43;3.15;;;30.20;88.90;;;;;;5026730;28;20120;-84
2021/06/13 11:38:14;;;;;;;3.40;2.77;;;30.20;88.00;;;;;;5009099;28;20030;-83
2021/06/13 11:40:55;;;;;;;3.90;3.30;;;30.00;88.00;;;;;;5006580;28;20277;-83
2021/06/13 11:43:32;;;;;;;4.15;3.10;;;29.90;89.30;;;;;;5013117;28;20026;-79
2021/06/13 11:46:01;;;;;;;4.68;3.35;;;29.90;88.90;;;;;;5010224;28;20022;-80
2021/06/13 11:48:32;;;;;;;8.90;3.00;;;29.90;88.50;;;;;;5013435;28;20025;-81
2021/06/13 11:51:18;;;;;;;;;;;30.00;88.20;;;;;;5011928;28;20021;-85
2021/06/13 11:54:06;;;;;;;4.07;2.95;;;30.10;88.40;;;;;;5007248;28;19964;-80
2021/06/13 11:56:35;;;;;;;4.75;2.72;;;30.10;88.20;;;;;;5004186;28;20064;-83
2021/06/13 11:59:12;;;;;;;11.57;2.90;;;30.10;88.50;;;;;;5012454;28;20032;-84
2021/06/13 12:01:39;;;;;;;7.32;3.17;;;30.20;87.90;;;;;;5010649;28;20038;-83
2021/06/13 12:04:07;;;;;;;2.92;2.60;;;30.20;87.90;;;;;;4992131;28;21293;-83
2021/06/13 12:06:37;;;;;;;4.55;2.50;;;30.30;87.30;;;;;;5010282;28;20072;-79
2021/06/13 12:09:12;;;;;;;5.80;3.10;;;30.30;85.80;;;;;;5012434;28;20100;-81
2021/06/13 12:11:58;;;;;;;6.13;2.70;;;30.30;87.00;;;;;;5010438;28;20025;-82
2021/06/13 12:14:34;;;;;;;3.45;3.00;;;30.30;87.20;;;;;;5011787;28;20077;-82
2021/06/13 12:17:25;;;;;;;4.03;2.90;;;30.30;86.30;;;;;;5012481;28;20018;-81
2021/06/13 12:19:55;;;;;;;2.85;2.65;;;30.20;86.50;;;;;;5011692;28;20034;-79
2021/06/13 12:27:39;;;;;;;3.25;2.65;;;30.30;86.20;;;;;;5011644;28;20022;-82
2021/06/13 12:30:27;;;;;;;3.70;2.72;;;30.30;86.00;;;;;;5012044;28;20064;-82
2021/06/13 12:33:06;;;;;;;8.05;2.85;;;30.30;84.90;;;;;;5011655;28;20030;-83
2021/06/13 12:35:35;;;;;;;3.20;2.85;;;30.30;85.80;;;;;;5011474;28;20530;-82
2021/06/13 12:38:24;;;;;;;3.45;2.70;;;30.30;85.20;;;;;;5012115;28;20010;-83
2021/06/13 12:40:53;;;;;;;4.05;3.00;;;30.30;84.20;;;;;;5011474;28;20018;-82
2021/06/13 12:43:39;;;;;;;2.75;2.45;;;30.30;84.30;;;;;;5012069;28;20093;-82
2021/06/13 12:46:08;;;;;;;3.17;2.75;;;30.30;84.90;;;;;;5012172;28;20025;-83
2021/06/13 12:48:34;;;;;;;5.22;2.92;;;30.30;84.80;;;;;;5011808;28;20026;-82
2021/06/13 12:51:01;;;;;;;8.05;2.60;;;30.30;84.40;;;;;;5011855;28;20033;-81
2021/06/13 12:53:43;;;;;;;2.72;2.53;;;30.30;83.90;;;;;;5011334;28;20058;-82
2021/06/13 12:56:09;;;;;;;6.30;3.42;;;30.30;84.60;;;;;;5009925;28;20174;-80
2021/06/13 12:58:40;;;;;;;5.45;3.75;;;30.40;91.10;;;;;;4988863;28;20029;-84
2021/06/13 13:01:07;;;;;;;7.47;3.95;;;30.30;94.30;;;;;;5007737;28;20534;-84
2021/06/13 13:03:45;;;;;;;10.80;3.88;;;30.10;95.70;;;;;;5012927;28;20100;-82